Time;durP1;ratioP1;P1;durP2;ratioP2;P2;SDS_P1;SDS_P2;PMS_P1;PMS_P2;Temp;Humidity;BMP_temperature;BMP_pressure;BME280_temperature;BME280_humidity;BME280_pressure;Samples;Min_cycle;Max_cycle;Signal;HPM_P1;HPM_P2
2023/06/21 00:01:35;;;;;;;;;;;;;;;24.28;52.29;100973.72;4230921;28;19934;-56
2023/06/21 00:03:36;;;;;;;;;;;;;;;24.27;52.26;100972.06;4230026;28;19935;-57
2023/06/21 00:05:38;;;;;;;;;;;;;;;24.27;52.30;100977.44;4230713;28;20317;-55
2023/06/21 00:07:41;;;;;;;;;;;;;;;24.26;52.36;100981.94;4230598;28;19949;-57
2023/06/21 00:09:42;;;;;;;;;;;;;;;24.26;52.21;100979.25;4230868;28;20261;-56
2023/06/21 00:11:44;;;;;;;;;;;;;;;24.24;52.30;100983.91;4234967;27;20385;-56
2023/06/21 00:13:46;;;;;;;;;;;;;;;24.23;52.26;100985.75;4229682;28;19934;-57
2023/06/21 00:15:49;;;;;;;;;;;;;;;24.23;52.36;100980.38;4230568;28;20027;-57
2023/06/21 00:17:51;;;;;;;;;;;;;;;24.22;52.21;100967.09;4230835;28;19924;-57
2023/06/21 00:19:54;;;;;;;;;;;;;;;24.22;52.30;100972.47;4230721;28;20393;-57
2023/06/21 00:21:57;;;;;;;;;;;;;;;24.21;52.28;100971.59;4230470;28;19928;-56
2023/06/21 00:24:02;;;;;;;;;;;;;;;24.20;52.11;100977.13;4229615;28;19923;-57
2023/06/21 00:26:04;;;;;;;;;;;;;;;24.19;52.23;100976.28;4230489;28;19930;-56
2023/06/21 00:28:05;;;;;;;;;;;;;;;24.19;52.11;100978.09;4230382;28;19970;-56
2023/06/21 00:30:07;;;;;;;;;;;;;;;24.18;52.29;100982.63;4230157;28;19924;-56
2023/06/21 00:32:09;;;;;;;;;;;;;;;24.17;52.19;100978.25;4230568;28;19924;-57
2023/06/21 00:34:10;;;;;;;;;;;;;;;24.16;52.09;100981.09;4229522;28;20023;-57
2023/06/21 00:36:12;;;;;;;;;;;;;;;24.16;52.17;100976.53;4229990;28;20301;-56
2023/06/21 00:38:14;;;;;;;;;;;;;;;24.15;52.38;100974.84;4230464;28;20022;-56
2023/06/21 00:40:16;;;;;;;;;;;;;;;24.14;52.21;100986.56;4230441;28;19928;-56
2023/06/21 00:42:17;;;;;;;;;;;;;;;24.13;52.25;100990.25;4230366;28;20007;-57
2023/06/21 00:44:19;;;;;;;;;;;;;;;24.14;52.28;100991.09;4229603;28;19992;-55
2023/06/21 00:46:21;;;;;;;;;;;;;;;24.12;52.29;100988.56;4230437;28;19930;-56
2023/06/21 00:48:23;;;;;;;;;;;;;;;24.12;51.92;100993.06;4230520;28;19967;-55
2023/06/21 00:50:25;;;;;;;;;;;;;;;24.11;52.45;100989.53;4230015;28;20389;-56
2023/06/21 00:52:28;;;;;;;;;;;;;;;24.12;52.48;100991.25;4230121;28;19928;-57
2023/06/21 00:54:31;;;;;;;;;;;;;;;24.10;52.10;100998.59;4228701;28;20039;-57
2023/06/21 00:56:36;;;;;;;;;;;;;;;24.11;52.27;100999.44;4229136;28;19924;-57
2023/06/21 00:58:37;;;;;;;;;;;;;;;24.09;52.52;100999.56;4230497;28;20367;-56
2023/06/21 01:00:39;;;;;;;;;;;;;;;24.07;52.38;101001.53;4230202;28;19931;-56
2023/06/21 01:02:43;;;;;;;;;;;;;;;24.07;52.40;101007.78;4229879;28;19931;-56
2023/06/21 01:04:46;;;;;;;;;;;;;;;24.07;52.07;101009.59;4229937;28;20006;-56
2023/06/21 01:06:52;;;;;;;;;;;;;;;24.06;52.13;101005.22;4230404;28;20373;-57
2023/06/21 01:09:13;;;;;;;;;;;;;;;24.05;52.46;101001.69;4230131;28;19924;-56
2023/06/21 01:11:24;;;;;;;;;;;;;;;24.05;52.40;101006.22;4235157;28;19923;-56
2023/06/21 01:13:28;;;;;;;;;;;;;;;24.05;52.43;101009.75;4246436;27;19923;-55
2023/06/21 01:15:32;;;;;;;;;;;;;;;24.04;52.20;101012.56;4247399;27;19978;-56
2023/06/21 01:17:35;;;;;;;;;;;;;;;24.03;52.06;101013.56;4248386;27;19924;-56
2023/06/21 01:19:51;;;;;;;;;;;;;;;24.02;52.40;101015.41;4250121;27;19924;-56
2023/06/21 01:21:53;;;;;;;;;;;;;;;24.01;52.51;101019.06;4245765;27;20360;-55
2023/06/21 01:23:54;;;;;;;;;;;;;;;24.01;52.32;101027.13;4232575;27;19945;-57
2023/06/21 01:26:08;;;;;;;;;;;;;;;24.01;52.36;101028.94;4233255;28;19931;-54
2023/06/21 01:28:28;;;;;;;;;;;;;;;24.00;52.45;101027.25;4233086;28;19958;-55
2023/06/21 01:30:31;;;;;;;;;;;;;;;24.00;52.49;101040.69;4233104;28;20021;-55
2023/06/21 01:32:33;;;;;;;;;;;;;;;23.99;52.14;101034.47;4231573;28;19927;-56
2023/06/21 01:34:35;;;;;;;;;;;;;;;23.99;52.40;101034.47;4232386;28;19924;-56
2023/06/21 01:36:39;;;;;;;;;;;;;;;23.99;52.37;101028.25;4233213;28;19940;-56
2023/06/21 01:38:41;;;;;;;;;;;;;;;23.97;52.50;101028.38;4233079;28;19977;-56
2023/06/21 01:40:42;;;;;;;;;;;;;;;23.96;52.31;101032.03;4233011;28;20026;-56
2023/06/21 01:42:44;;;;;;;;;;;;;;;23.97;52.30;101032.91;4232457;27;19924;-57
2023/06/21 01:44:46;;;;;;;;;;;;;;;23.95;52.37;101030.34;4232850;28;20446;-55
2023/06/21 01:46:51;;;;;;;;;;;;;;;23.95;52.21;101038.41;4232856;28;19924;-56
2023/06/21 01:48:54;;;;;;;;;;;;;;;23.95;52.18;101037.53;4232836;28;19924;-57
2023/06/21 01:50:55;;;;;;;;;;;;;;;23.95;52.21;101050.97;4232988;28;19977;-57
2023/06/21 01:52:58;;;;;;;;;;;;;;;23.94;52.37;101052.84;4232195;28;19924;-57
2023/06/21 01:55:00;;;;;;;;;;;;;;;23.94;52.37;101060.88;4232819;28;19969;-57
2023/06/21 01:57:03;;;;;;;;;;;;;;;23.94;52.37;101055.50;4232922;28;19963;-57
2023/06/21 01:59:04;;;;;;;;;;;;;;;23.93;52.17;101053.81;4232837;27;19962;-55
2023/06/21 02:01:07;;;;;;;;;;;;;;;23.92;52.32;101068.19;4231760;28;19950;-57
2023/06/21 02:03:13;;;;;;;;;;;;;;;23.92;52.25;101068.19;4231693;28;19930;-57
2023/06/21 02:05:16;;;;;;;;;;;;;;;23.91;52.38;101075.41;4232873;28;19924;-57
2023/06/21 02:07:19;;;;;;;;;;;;;;;23.90;52.38;101073.69;4232778;28;19934;-57
2023/06/21 02:09:21;;;;;;;;;;;;;;;23.90;52.25;101081.75;4232602;28;19931;-56
2023/06/21 02:11:22;;;;;;;;;;;;;;;23.90;52.47;101078.22;4238717;27;19962;-56
2023/06/21 02:13:26;;;;;;;;;;;;;;;23.90;52.26;101073.69;4248644;27;19927;-56
2023/06/21 02:15:27;;;;;;;;;;;;;;;23.89;52.27;101071.13;4249634;27;20381;-56
2023/06/21 02:17:29;;;;;;;;;;;;;;;23.89;52.20;101087.25;4248620;27;19975;-56
2023/06/21 02:19:31;;;;;;;;;;;;;;;23.88;52.15;101080.19;4232672;28;19924;-56
2023/06/21 02:21:33;;;;;;;;;;;;;;;23.87;52.35;101079.31;4232491;28;19969;-57
2023/06/21 02:23:34;;;;;;;;;;;;;;;23.86;51.97;101069.56;4231500;28;19923;-57
2023/06/21 02:25:36;;;;;;;;;;;;;;;23.87;51.99;101068.59;4231948;28;20026;-56
2023/06/21 02:27:39;;;;;;;;;;;;;;;23.85;52.31;101070.56;4232417;28;19924;-57
2023/06/21 02:29:40;;;;;;;;;;;;;;;23.85;52.30;101065.19;4232379;28;20421;-56
2023/06/21 02:31:42;;;;;;;;;;;;;;;23.86;52.17;101057.97;4231809;28;19931;-56
2023/06/21 02:33:47;;;;;;;;;;;;;;;23.85;52.37;101059.81;4231332;28;20224;-56
2023/06/21 02:35:48;;;;;;;;;;;;;;;23.84;52.27;101068.00;4232196;28;20277;-55
2023/06/21 02:37:50;;;;;;;;;;;;;;;23.85;52.21;101069.69;4230725;28;20030;-56
2023/06/21 02:39:51;;;;;;;;;;;;;;;23.84;52.21;101070.69;4232217;28;20354;-54
2023/06/21 02:41:54;;;;;;;;;;;;;;;23.84;52.21;101073.38;4231989;28;20401;-56
2023/06/21 02:43:56;;;;;;;;;;;;;;;23.83;52.43;101080.59;4230904;27;20481;-56
2023/06/21 02:45:57;;;;;;;;;;;;;;;23.83;52.07;101077.91;4231878;28;20329;-55
2023/06/21 02:47:59;;;;;;;;;;;;;;;23.81;52.13;101069.13;4230651;28;20019;-56
2023/06/21 02:50:02;;;;;;;;;;;;;;;23.81;52.21;101063.75;4231794;28;19981;-56
2023/06/21 02:52:03;;;;;;;;;;;;;;;23.80;52.36;101072.78;4231835;28;19930;-56
2023/06/21 02:54:05;;;;;;;;;;;;;;;23.82;52.17;101078.03;4231092;28;19927;-55
2023/06/21 02:56:07;;;;;;;;;;;;;;;23.81;52.40;101085.22;4231929;28;19963;-56
2023/06/21 02:58:08;;;;;;;;;;;;;;;23.80;52.35;101080.00;4231962;28;20339;-56
2023/06/21 03:00:22;;;;;;;;;;;;;;;23.80;52.02;101086.22;4229890;28;19927;-56
2023/06/21 03:02:24;;;;;;;;;;;;;;;23.80;52.42;101082.69;4231656;28;19924;-56
2023/06/21 03:04:26;;;;;;;;;;;;;;;23.80;52.07;101090.75;4230981;28;20326;-56
2023/06/21 03:06:29;;;;;;;;;;;;;;;23.78;52.42;101082.81;4231624;28;19931;-54
2023/06/21 03:08:31;;;;;;;;;;;;;;;23.78;52.27;101082.81;4231805;28;20356;-56
2023/06/21 03:10:33;;;;;;;;;;;;;;;23.77;52.50;101075.75;4231875;27;19950;-56
2023/06/21 03:12:34;;;;;;;;;;;;;;;23.78;52.49;101088.19;4239016;27;19924;-55
2023/06/21 03:14:41;;;;;;;;;;;;;;;23.77;52.46;101092.69;4230550;28;20282;-57
2023/06/21 03:16:44;;;;;;;;;;;;;;;23.78;52.10;101093.56;4231528;28;19931;-56
2023/06/21 03:18:46;;;;;;;;;;;;;;;23.75;52.41;101086.59;4231571;28;19981;-58
2023/06/21 03:20:50;;;;;;;;;;;;;;;23.76;52.28;101093.69;4231431;28;19931;-56
2023/06/21 03:22:51;;;;;;;;;;;;;;;23.74;52.32;101084.06;4231616;28;19953;-56
2023/06/21 03:24:53;;;;;;;;;;;;;;;23.73;52.14;101091.28;4230481;27;19963;-56
2023/06/21 03:26:54;;;;;;;;;;;;;;;23.73;52.33;101096.66;4231149;28;20344;-57
2023/06/21 03:28:57;;;;;;;;;;;;;;;23.73;52.27;101095.78;4230832;28;20400;-57
2023/06/21 03:30:58;;;;;;;;;;;;;;;23.72;52.29;101094.94;4231221;28;19931;-57
2023/06/21 03:33:00;;;;;;;;;;;;;;;23.72;52.58;101092.25;4230881;28;19955;-58
2023/06/21 03:35:02;;;;;;;;;;;;;;;23.71;52.50;101085.19;4230715;28;20440;-56
2023/06/21 03:37:04;;;;;;;;;;;;;;;23.72;52.41;101096.75;4231354;28;20351;-57
2023/06/21 03:39:06;;;;;;;;;;;;;;;23.71;52.44;101097.75;4231172;28;19966;-57
2023/06/21 03:41:07;;;;;;;;;;;;;;;23.72;52.29;101099.44;4230766;28;20393;-57
2023/06/21 03:43:09;;;;;;;;;;;;;;;23.71;52.12;101105.81;4230115;28;19932;-57
2023/06/21 03:45:11;;;;;;;;;;;;;;;23.71;52.42;101105.81;4230578;28;19923;-56
2023/06/21 03:47:12;;;;;;;;;;;;;;;23.70;52.30;101102.25;4231188;28;20372;-57
2023/06/21 03:49:14;;;;;;;;;;;;;;;23.71;52.44;101116.56;4231179;28;19924;-57
2023/06/21 03:51:15;;;;;;;;;;;;;;;23.70;52.35;101118.38;4231003;28;19924;-57
2023/06/21 03:53:17;;;;;;;;;;;;;;;23.70;52.43;101122.91;4230189;28;19957;-56
2023/06/21 03:55:19;;;;;;;;;;;;;;;23.69;52.02;101130.09;4230860;28;20292;-57
2023/06/21 03:57:20;;;;;;;;;;;;;;;23.69;52.37;101140.00;4231010;28;19941;-58
2023/06/21 03:59:22;;;;;;;;;;;;;;;23.67;52.17;101140.13;4230442;28;20373;-57
2023/06/21 04:01:23;;;;;;;;;;;;;;;23.67;52.43;101148.19;4230731;28;19930;-56
2023/06/21 04:03:25;;;;;;;;;;;;;;;23.68;52.47;101151.72;4228816;28;19938;-57
2023/06/21 04:05:27;;;;;;;;;;;;;;;23.67;52.17;101150.88;4230639;28;20355;-56
2023/06/21 04:07:29;;;;;;;;;;;;;;;23.66;52.28;101151.84;4230749;28;19927;-57
2023/06/21 04:09:31;;;;;;;;;;;;;;;23.67;52.49;101160.75;4230788;28;19923;-57
2023/06/21 04:11:32;;;;;;;;;;;;;;;23.67;51.98;101160.75;4238174;27;19923;-57
2023/06/21 04:13:35;;;;;;;;;;;;;;;23.66;52.41;101167.97;4246640;27;19970;-57
2023/06/21 04:15:36;;;;;;;;;;;;;;;23.64;52.40;101164.56;4247931;27;20015;-57
2023/06/21 04:17:38;;;;;;;;;;;;;;;23.65;52.52;101177.00;4247829;27;19977;-57
2023/06/21 04:19:40;;;;;;;;;;;;;;;23.65;52.26;101170.78;4247768;27;19924;-55
2023/06/21 04:21:41;;;;;;;;;;;;;;;23.64;52.33;101172.59;4247571;27;19969;-57
2023/06/21 04:23:43;;;;;;;;;;;;;;;23.64;52.44;101183.34;4246815;27;20385;-57
2023/06/21 04:25:45;;;;;;;;;;;;;;;23.63;52.37;101188.84;4247549;27;19945;-57
2023/06/21 04:27:47;;;;;;;;;;;;;;;23.64;52.46;101185.19;4234630;27;19934;-57
2023/06/21 04:29:48;;;;;;;;;;;;;;;23.63;52.42;101187.00;4230581;28;19924;-58
2023/06/21 04:31:52;;;;;;;;;;;;;;;23.63;52.29;101191.53;4230398;28;19930;-56
2023/06/21 04:33:55;;;;;;;;;;;;;;;23.63;52.57;101202.28;4229592;28;19931;-57
2023/06/21 04:35:57;;;;;;;;;;;;;;;23.62;52.50;101198.72;4230687;28;20125;-57
2023/06/21 04:37:59;;;;;;;;;;;;;;;23.61;52.45;101194.38;4230455;28;19962;-57
2023/06/21 04:40:01;;;;;;;;;;;;;;;23.60;52.54;101198.84;4230869;28;19924;-57
2023/06/21 04:42:20;;;;;;;;;;;;;;;23.61;52.34;101202.41;4230062;28;19924;-56
2023/06/21 04:44:21;;;;;;;;;;;;;;;23.61;52.48;101202.41;4229421;28;19930;-57
2023/06/21 04:46:27;;;;;;;;;;;;;;;23.61;52.46;101216.69;4230598;28;20012;-57
2023/06/21 04:48:29;;;;;;;;;;;;;;;23.61;52.51;101226.59;4230535;28;19927;-57
2023/06/21 04:50:31;;;;;;;;;;;;;;;23.61;52.57;101232.78;4230458;28;19931;-57
2023/06/21 04:52:32;;;;;;;;;;;;;;;23.60;52.38;101233.75;4231567;28;20014;-57
2023/06/21 04:54:34;;;;;;;;;;;;;;;23.60;52.14;101228.41;4232818;28;19930;-57
2023/06/21 04:56:36;;;;;;;;;;;;;;;23.61;52.54;101237.31;4233485;28;19959;-57
2023/06/21 04:58:39;;;;;;;;;;;;;;;23.61;52.46;101240.00;4233568;28;19932;-56
2023/06/21 05:00:40;;;;;;;;;;;;;;;23.60;52.36;101233.75;4232639;28;19973;-56
2023/06/21 05:02:42;;;;;;;;;;;;;;;23.59;52.40;101239.28;4233563;28;19925;-57
2023/06/21 05:04:44;;;;;;;;;;;;;;;23.59;52.29;101245.47;4232687;27;20360;-56
2023/06/21 05:06:46;;;;;;;;;;;;;;;23.59;52.47;101245.47;4233598;28;19947;-57
2023/06/21 05:08:47;;;;;;;;;;;;;;;23.59;52.42;101253.53;4233820;28;20323;-56
2023/06/21 05:10:49;;;;;;;;;;;;;;;23.61;52.16;101245.38;4234341;27;19931;-57
2023/06/21 05:12:50;;;;;;;;;;;;;;;23.60;52.36;101254.41;4250618;27;19923;-57
2023/06/21 05:14:52;;;;;;;;;;;;;;;23.60;52.47;101254.41;4249679;27;19999;-57
2023/06/21 05:16:54;;;;;;;;;;;;;;;23.61;52.41;101245.38;4250680;27;19930;-57
2023/06/21 05:18:55;;;;;;;;;;;;;;;23.60;52.26;101249.88;4250591;27;20419;-56
2023/06/21 05:20:57;;;;;;;;;;;;;;;23.61;52.23;101256.13;4250544;27;19924;-57
2023/06/21 05:22:58;;;;;;;;;;;;;;;23.61;52.50;101256.97;4250557;27;19998;-57
2023/06/21 05:25:03;;;;;;;;;;;;;;;23.61;52.45;101261.50;4249039;27;19923;-57
2023/06/21 05:27:05;;;;;;;;;;;;;;;23.63;52.32;101266.72;4243271;27;19970;-57
2023/06/21 05:29:07;;;;;;;;;;;;;;;23.62;52.32;101263.16;4233478;28;19927;-57
2023/06/21 05:31:09;;;;;;;;;;;;;;;23.61;52.50;101262.31;4233095;28;19959;-57
2023/06/21 05:33:10;;;;;;;;;;;;;;;23.63;52.54;101272.09;4233330;28;19992;-57
2023/06/21 05:35:12;;;;;;;;;;;;;;;23.62;52.47;101271.22;4232306;28;19963;-57
2023/06/21 05:37:14;;;;;;;;;;;;;;;23.63;52.56;101272.09;4233000;28;19947;-54
2023/06/21 05:39:15;;;;;;;;;;;;;;;23.62;52.31;101265.84;4232998;28;19930;-56
2023/06/21 05:41:16;;;;;;;;;;;;;;;23.62;52.27;101268.53;4232830;28;19928;-58
2023/06/21 05:43:18;;;;;;;;;;;;;;;23.61;52.31;101270.38;4232869;28;20347;-57
2023/06/21 05:45:20;;;;;;;;;;;;;;;23.61;52.58;101264.19;4232132;28;20388;-57
2023/06/21 05:47:21;;;;;;;;;;;;;;;23.61;52.39;101269.53;4233248;28;19924;-57
2023/06/21 05:49:23;;;;;;;;;;;;;;;23.60;52.29;101263.31;4233038;28;19923;-57
2023/06/21 05:51:25;;;;;;;;;;;;;;;23.59;52.32;101258.91;4233077;28;19967;-57
2023/06/21 05:53:26;;;;;;;;;;;;;;;23.59;52.46;101255.38;4232534;28;20012;-57
2023/06/21 05:55:28;;;;;;;;;;;;;;;23.59;52.58;101248.16;4231853;28;19959;-56
2023/06/21 05:57:29;;;;;;;;;;;;;;;23.58;52.44;101261.72;4232799;28;20309;-56
2023/06/21 05:59:31;;;;;;;;;;;;;;;23.60;52.25;101265.16;4232978;28;19924;-56
2023/06/21 06:01:33;;;;;;;;;;;;;;;23.58;52.35;101265.25;4232833;28;20373;-56
2023/06/21 06:03:34;;;;;;;;;;;;;;;23.59;52.21;101260.75;4231930;28;19966;-58
2023/06/21 06:05:36;;;;;;;;;;;;;;;23.58;52.46;101267.09;4231178;28;20415;-56
2023/06/21 06:07:37;;;;;;;;;;;;;;;23.58;52.47;101262.56;4232794;28;19989;-56
2023/06/21 06:09:39;;;;;;;;;;;;;;;23.59;52.43;101264.28;4232471;28;20018;-56
2023/06/21 06:11:40;;;;;;;;;;;;;;;23.58;52.14;101270.63;4232759;28;20413;-56
2023/06/21 06:13:42;;;;;;;;;;;;;;;23.59;52.38;101269.66;4231724;28;20015;-56
2023/06/21 06:15:43;;;;;;;;;;;;;;;23.59;52.25;101269.66;4232303;28;19931;-56
2023/06/21 06:17:46;;;;;;;;;;;;;;;23.59;52.26;101271.50;4232937;28;19969;-55
2023/06/21 06:19:48;;;;;;;;;;;;;;;23.58;52.40;101270.63;4232732;28;20014;-55
2023/06/21 06:21:49;;;;;;;;;;;;;;;23.59;52.30;101272.34;4232505;28;20033;-55
2023/06/21 06:23:52;;;;;;;;;;;;;;;23.59;52.09;101269.66;4231477;28;19924;-56
2023/06/21 06:25:53;;;;;;;;;;;;;;;23.58;52.41;101270.63;4232039;28;19930;-57
2023/06/21 06:27:55;;;;;;;;;;;;;;;23.59;52.47;101266.13;4232094;28;19986;-54
2023/06/21 06:29:57;;;;;;;;;;;;;;;23.59;51.99;101268.81;4232212;28;19927;-56
2023/06/21 06:31:58;;;;;;;;;;;;;;;23.59;52.40;101271.50;4232326;28;19932;-56
2023/06/21 06:34:00;;;;;;;;;;;;;;;23.60;52.02;101283.94;4231542;28;19935;-56
2023/06/21 06:36:01;;;;;;;;;;;;;;;23.60;52.04;101274.03;4232025;28;19931;-56
2023/06/21 06:38:03;;;;;;;;;;;;;;;23.60;52.35;101278.56;4231988;28;19927;-57
2023/06/21 06:40:05;;;;;;;;;;;;;;;23.61;52.52;101277.59;4232303;28;19959;-57
2023/06/21 06:42:09;;;;;;;;;;;;;;;23.59;52.17;101283.06;4232090;28;19946;-58
2023/06/21 06:44:11;;;;;;;;;;;;;;;23.61;52.27;101286.50;4231200;28;19924;-56
2023/06/21 06:46:14;;;;;;;;;;;;;;;23.61;52.45;101288.34;4232019;28;19924;-56
2023/06/21 06:48:15;;;;;;;;;;;;;;;23.62;52.37;101281.97;4231998;28;19977;-57
2023/06/21 06:50:17;;;;;;;;;;;;;;;23.61;52.02;101289.19;4231885;28;19924;-56
2023/06/21 06:52:18;;;;;;;;;;;;;;;23.62;52.10;101287.34;4231908;28;19974;-58
2023/06/21 06:54:20;;;;;;;;;;;;;;;23.63;52.00;101289.03;4230998;28;19924;-57
2023/06/21 06:56:21;;;;;;;;;;;;;;;23.64;51.85;101282.69;4231958;28;20407;-57
2023/06/21 06:58:23;;;;;;;;;;;;;;;23.65;51.80;101286.25;4231995;28;19963;-58
2023/06/21 07:00:27;;;;;;;;;;;;;;;23.67;51.79;101295.00;4232003;28;19924;-57
2023/06/21 07:02:29;;;;;;;;;;;;;;;23.68;51.96;101297.59;4231913;28;20007;-57
2023/06/21 07:04:31;;;;;;;;;;;;;;;23.70;51.50;101301.00;4230852;28;20304;-57
2023/06/21 07:06:33;;;;;;;;;;;;;;;23.71;51.51;101301.88;4231520;28;19924;-56
2023/06/21 07:08:35;;;;;;;;;;;;;;;23.72;51.76;101309.78;4231904;28;19955;-57
2023/06/21 07:10:37;;;;;;;;;;;;;;;23.75;51.70;101306.81;4231631;28;19955;-57
2023/06/21 07:12:39;;;;;;;;;;;;;;;23.77;51.36;101309.41;4231662;28;19971;-57
2023/06/21 07:14:40;;;;;;;;;;;;;;;23.79;51.48;101311.97;4230124;28;19924;-57
2023/06/21 07:16:42;;;;;;;;;;;;;;;23.81;51.44;101312.69;4231431;28;20360;-56
2023/06/21 07:18:43;;;;;;;;;;;;;;;23.83;51.25;101316.97;4231489;28;20341;-57
2023/06/21 07:20:45;;;;;;;;;;;;;;;23.85;51.33;101316.81;4231952;27;19977;-56
2023/06/21 07:22:46;;;;;;;;;;;;;;;23.85;51.23;101317.69;4230140;28;20380;-56
2023/06/21 07:24:48;;;;;;;;;;;;;;;23.87;51.18;101312.19;4230379;28;19928;-58
2023/06/21 07:26:50;;;;;;;;;;;;;;;23.87;50.74;101314.88;4231498;28;19935;-57
2023/06/21 07:28:51;;;;;;;;;;;;;;;23.89;50.95;101311.06;4231517;28;20018;-57
2023/06/21 07:30:53;;;;;;;;;;;;;;;23.90;51.23;101307.41;4231209;28;19928;-58
2023/06/21 07:32:54;;;;;;;;;;;;;;;23.92;50.78;101312.66;4231480;28;19924;-57
2023/06/21 07:34:58;;;;;;;;;;;;;;;23.92;50.97;101308.16;4230303;28;20342;-56
2023/06/21 07:36:59;;;;;;;;;;;;;;;23.95;50.92;101308.88;4231120;28;19927;-56
2023/06/21 07:39:00;;;;;;;;;;;;;;;23.93;51.01;101304.50;4231270;28;19924;-56
2023/06/21 07:41:02;;;;;;;;;;;;;;;23.92;50.94;101312.66;4231310;28;20254;-56
2023/06/21 07:43:05;;;;;;;;;;;;;;;23.90;51.20;101322.66;4231353;28;19967;-56
2023/06/21 07:45:07;;;;;;;;;;;;;;;23.89;51.11;101323.63;4230287;28;19924;-56
2023/06/21 07:47:08;;;;;;;;;;;;;;;23.89;51.04;101326.31;4231226;28;19976;-58
2023/06/21 07:49:13;;;;;;;;;;;;;;;23.90;51.15;101322.66;4230098;28;19924;-58
2023/06/21 07:51:14;;;;;;;;;;;;;;;23.88;51.13;101308.53;4230773;28;20316;-57
2023/06/21 07:53:16;;;;;;;;;;;;;;;23.87;50.96;101304.13;4229873;28;19960;-58
2023/06/21 07:55:18;;;;;;;;;;;;;;;23.86;50.95;101307.78;4230158;28;19967;-58
2023/06/21 07:57:19;;;;;;;;;;;;;;;23.87;51.04;101301.44;4231036;28;19924;-57
2023/06/21 07:59:21;;;;;;;;;;;;;;;23.88;51.17;101308.53;4231159;28;19947;-57
2023/06/21 08:01:23;;;;;;;;;;;;;;;23.90;51.17;101304.72;4231021;28;19970;-53
2023/06/21 08:03:24;;;;;;;;;;;;;;;23.92;50.87;101313.53;4230977;28;19924;-57
2023/06/21 08:05:26;;;;;;;;;;;;;;;23.95;50.88;101314.25;4228449;28;19942;-57
2023/06/21 08:07:28;;;;;;;;;;;;;;;23.94;50.90;101321.47;4231023;28;19983;-57
2023/06/21 08:09:29;;;;;;;;;;;;;;;23.94;51.09;101316.09;4229739;28;20389;-56
2023/06/21 08:11:31;;;;;;;;;;;;;;;23.95;50.87;101314.25;4230421;28;20015;-57
2023/06/21 08:13:32;;;;;;;;;;;;;;;24.04;50.59;101326.94;4229049;28;19923;-57
2023/06/21 08:15:34;;;;;;;;;;;;;;;24.12;50.52;101329.84;4229760;28;19924;-56
2023/06/21 08:17:36;;;;;;;;;;;;;;;24.20;51.14;101339.94;4219425;28;19924;-53
2023/06/21 08:19:37;;;;;;;;;;;;;;;24.27;52.94;101334.91;4226510;28;19977;-59
2023/06/21 08:21:39;;;;;;;;;;;;;;;24.30;50.97;101330.09;4230451;28;19953;-53
2023/06/21 08:23:41;;;;;;;;;;;;;;;24.37;52.14;101335.84;4223768;28;19924;-54
2023/06/21 08:25:45;;;;;;;;;;;;;;;24.43;52.11;101331.78;4226151;28;20399;-53
2023/06/21 08:27:46;;;;;;;;;;;;;;;24.50;51.47;101332.97;4223805;28;19928;-56
2023/06/21 08:29:48;;;;;;;;;;;;;;;24.59;51.65;101334.84;4229135;28;19924;-53
2023/06/21 08:31:50;;;;;;;;;;;;;;;24.70;51.53;101339.34;4230258;28;19928;-56
2023/06/21 08:33:51;;;;;;;;;;;;;;;24.74;50.80;101330.03;4226631;28;19924;-52
2023/06/21 08:35:53;;;;;;;;;;;;;;;24.78;50.96;101333.31;4225521;28;19930;-55
2023/06/21 08:37:58;;;;;;;;;;;;;;;24.78;51.46;101333.31;4217032;28;19935;-54
2023/06/21 08:40:07;;;;;;;;;;;;;;;24.84;50.61;101335.47;4221216;28;19931;-54
2023/06/21 08:42:09;;;;;;;;;;;;;;;24.90;50.77;101332.25;4225245;28;20297;-57
2023/06/21 08:44:10;;;;;;;;;;;;;;;24.92;50.67;101335.63;4229392;28;20022;-55
2023/06/21 08:46:12;;;;;;;;;;;;;;;24.95;50.88;101335.38;4229612;28;19963;-56
2023/06/21 08:48:16;;;;;;;;;;;;;;;25.03;51.05;101338.25;4229743;28;19927;-58
2023/06/21 08:50:21;;;;;;;;;;;;;;;25.09;50.77;101339.53;4229894;28;20317;-57
2023/06/21 08:52:24;;;;;;;;;;;;;;;25.13;50.18;101343.69;4224988;28;19927;-57
2023/06/21 08:54:28;;;;;;;;;;;;;;;25.14;50.37;101337.31;4226896;28;20131;-56
2023/06/21 08:56:33;;;;;;;;;;;;;;;25.22;50.07;101338.50;4230364;28;19927;-58
2023/06/21 08:58:38;;;;;;;;;;;;;;;25.29;49.72;101336.97;4227906;28;19928;-57
2023/06/21 09:00:43;;;;;;;;;;;;;;;25.26;49.41;101345.28;4217943;28;19928;-57
2023/06/21 09:03:07;;;;;;;;;;;;;;;25.30;49.60;101344.91;4229208;28;19958;-57
2023/06/21 09:05:14;;;;;;;;;;;;;;;25.35;49.55;101349.88;4221219;28;20396;-57
2023/06/21 09:07:15;;;;;;;;;;;;;;;25.35;49.36;101348.03;4214903;28;19928;-57
2023/06/21 09:09:18;;;;;;;;;;;;;;;25.37;49.31;101353.25;4213485;28;19928;-58
2023/06/21 09:11:21;;;;;;;;;;;;;;;25.32;49.75;101344.75;4213411;28;20366;-55
2023/06/21 09:13:24;;;;;;;;;;;;;;;25.41;48.98;101351.19;4221255;28;19924;-57
2023/06/21 09:15:26;;;;;;;;;;;;;;;25.43;49.18;101351.91;4225010;28;19928;-57
2023/06/21 09:17:29;;;;;;;;;;;;;;;25.42;49.36;101350.19;4228552;28;19977;-55
2023/06/21 09:19:31;;;;;;;;;;;;;;;25.39;49.29;101343.25;4230102;28;20429;-57
2023/06/21 09:21:34;;;;;;;;;;;;;;;25.44;49.02;101343.69;4230129;28;19928;-57
2023/06/21 09:23:38;;;;;;;;;;;;;;;25.47;48.82;101343.41;4230049;28;20117;-58
2023/06/21 09:25:39;;;;;;;;;;;;;;;25.46;49.01;101351.66;4228294;28;19990;-58
2023/06/21 09:27:41;;;;;;;;;;;;;;;25.45;48.77;101345.38;4229852;28;20347;-57
2023/06/21 09:29:43;;;;;;;;;;;;;;;25.49;48.58;101352.22;4226499;28;19950;-56
2023/06/21 09:31:44;;;;;;;;;;;;;;;25.49;48.61;101344.16;4214429;28;20390;-55
2023/06/21 09:33:47;;;;;;;;;;;;;;;25.51;48.25;101346.69;4226893;28;19951;-56
2023/06/21 09:35:50;;;;;;;;;;;;;;;25.38;48.72;101332.63;4227937;28;19963;-56
2023/06/21 09:37:51;;;;;;;;;;;;;;;25.48;48.72;101350.53;4213405;28;20009;-57
2023/06/21 09:39:55;;;;;;;;;;;;;;;25.43;48.49;101357.28;4215469;28;19924;-59
2023/06/21 09:44:20;;;;;;;;;;;;;;;25.48;48.68;101342.44;4842527;22;19953;-58
2023/06/21 09:46:22;;;;;;;;;;;;;;;25.58;48.09;101352.38;4130720;28;19930;-58
2023/06/21 09:48:24;;;;;;;;;;;;;;;25.55;48.01;101347.28;4127289;28;20477;-58
2023/06/21 09:50:26;;;;;;;;;;;;;;;25.55;47.81;101356.19;4132757;28;19926;-57
2023/06/21 09:52:29;;;;;;;;;;;;;;;25.55;48.00;101356.19;4125957;28;19933;-57
2023/06/21 09:54:41;;;;;;;;;;;;;;;25.55;48.23;101361.56;4131941;28;19961;-58
2023/06/21 09:56:48;;;;;;;;;;;;;;;25.57;47.65;101356.91;4132718;28;19935;-58
2023/06/21 09:58:55;;;;;;;;;;;;;;;25.58;47.66;101353.25;4132802;28;19980;-58
2023/06/21 10:00:56;;;;;;;;;;;;;;;25.62;47.90;101359.19;4132901;28;20017;-58
2023/06/21 10:03:01;;;;;;;;;;;;;;;25.55;48.10;101345.41;4132560;28;20016;-58
2023/06/21 10:05:02;;;;;;;;;;;;;;;25.54;48.05;101341.00;4131801;28;20410;-57
2023/06/21 10:07:12;;;;;;;;;;;;;;;25.58;47.48;101347.84;4132665;28;20307;-58
2023/06/21 10:09:19;;;;;;;;;;;;;;;25.50;48.06;101340.44;4132830;28;20021;-57
2023/06/21 10:11:26;;;;;;;;;;;;;;;25.51;47.93;101346.69;4132956;28;20016;-57
2023/06/21 10:13:28;;;;;;;;;;;;;;;25.35;48.27;101349.88;4132743;28;19929;-57
2023/06/21 10:15:30;;;;;;;;;;;;;;;25.28;48.30;101348.72;4131648;28;19925;-55
2023/06/21 10:17:33;;;;;;;;;;;;;;;25.30;48.46;101344.03;4132438;28;19930;-56
2023/06/21 10:19:40;;;;;;;;;;;;;;;25.25;48.85;101340.88;4132555;28;19961;-51
2023/06/21 10:21:57;;;;;;;;;;;;;;;25.17;49.20;101338.88;4131327;28;20186;-54
2023/06/21 10:23:59;;;;;;;;;;;;;;;25.19;49.15;101345.00;4132588;28;19932;-57
2023/06/21 10:26:07;;;;;;;;;;;;;;;25.21;49.24;101337.63;4162788;28;20318;-57
2023/06/21 10:28:10;;;;;;;;;;;;;;;25.17;49.38;101339.72;4132555;28;20399;-57
2023/06/21 10:30:19;;;;;;;;;;;;;;;25.15;49.49;101341.72;4132358;28;19926;-57
2023/06/21 10:32:21;;;;;;;;;;;;;;;25.11;49.41;101332.19;4132033;28;19976;-56